Time;durP1;ratioP1;P1;durP2;ratioP2;P2;SDS_P1;SDS_P2;PMS_P1;PMS_P2;Temp;Humidity;BMP_temperature;BMP_pressure;BME280_temperature;BME280_humidity;BME280_pressure;Samples;Min_cycle;Max_cycle;Signal;HPM_P1;HPM_P2
2022/05/21 00:00:16;;;;;;;8.98;6.72;;;;;;;14.11;100.00;98421.75;5152245;27;20119;-60
2022/05/21 00:02:43;;;;;;;9.00;6.25;;;;;;;14.18;100.00;98426.41;5152448;27;20054;-60
2022/05/21 00:05:10;;;;;;;7.70;6.00;;;;;;;14.08;100.00;98423.31;5152484;27;20558;-60
2022/05/21 00:07:36;;;;;;;9.82;6.43;;;;;;;14.05;100.00;98442.66;5152211;27;20111;-60
2022/05/21 00:10:03;;;;;;;11.82;6.47;;;;;;;14.05;100.00;98450.91;5152147;27;20067;-60
2022/05/21 00:12:30;;;;;;;11.15;6.45;;;;;;;14.03;100.00;98464.34;5152340;27;20077;-60
2022/05/21 00:14:57;;;;;;;6.60;6.00;;;;;;;13.81;100.00;98477.47;5152147;27;20051;-60
2022/05/21 00:17:23;;;;;;;14.75;6.55;;;;;;;13.95;100.00;98477.34;5152042;27;20141;-60
2022/05/21 00:19:50;;;;;;;9.65;5.65;;;;;;;13.97;100.00;98469.47;5152394;27;20054;-59
2022/05/21 00:22:16;;;;;;;8.13;5.82;;;;;;;13.99;100.00;98469.06;5151851;27;20051;-59
2022/05/21 00:24:42;;;;;;;10.15;5.88;;;;;;;13.85;100.00;98479.00;5152296;27;20054;-60
2022/05/21 00:27:08;;;;;;;7.60;6.90;;;;;;;13.86;100.00;98488.03;5151904;27;20066;-60
2022/05/21 00:29:35;;;;;;;7.03;6.32;;;;;;;13.65;100.00;98480.69;5151961;27;20054;-60
2022/05/21 00:32:02;;;;;;;9.60;5.90;;;;;;;13.51;100.00;98459.53;5152260;27;20543;-59
2022/05/21 00:34:29;;;;;;;7.97;6.00;;;;;;;13.61;100.00;98455.16;5152063;27;20058;-60
2022/05/21 00:36:56;;;;;;;7.90;5.70;;;;;;;13.52;100.00;98452.81;5152080;27;20058;-60
2022/05/21 00:39:22;;;;;;;9.73;6.38;;;;;;;13.54;100.00;98439.44;5152000;27;20116;-60
2022/05/21 00:41:48;;;;;;;6.90;5.63;;;;;;;13.63;100.00;98419.75;5151901;27;20055;-60
2022/05/21 00:44:14;;;;;;;8.60;6.15;;;;;;;13.46;100.00;98426.13;5151519;27;20434;-60
2022/05/21 00:46:42;;;;;;;10.57;6.90;;;;;;;13.46;100.00;98412.34;5151689;27;20078;-60
2022/05/21 00:49:14;;;;;;;8.20;5.50;;;;;;;13.37;100.00;98419.09;5151477;27;20050;-60
2022/05/21 00:51:48;;;;;;;9.73;5.93;;;;;;;13.44;100.00;98410.00;5151536;27;20051;-60
2022/05/21 00:54:16;;;;;;;8.25;6.00;;;;;;;13.47;100.00;98406.44;5151377;27;20457;-59
2022/05/21 00:56:47;;;;;;;7.93;6.55;;;;;;;13.37;100.00;98410.06;5151481;27;20064;-60
2022/05/21 01:02:00;;;;;;;7.20;5.72;;;;;;;13.39;100.00;98411.22;5140511;27;20585;-60
2022/05/21 01:04:26;;;;;;;10.63;6.78;;;;;;;13.29;100.00;98422.28;5151567;27;20055;-60
2022/05/21 01:06:56;;;;;;;7.63;6.90;;;;;;;13.15;100.00;98406.59;5151344;27;20410;-59
2022/05/21 01:09:22;;;;;;;11.15;6.07;;;;;;;13.23;100.00;98397.13;5151362;27;20047;-60
2022/05/21 01:11:49;;;;;;;11.10;6.43;;;;;;;13.14;100.00;98392.03;5151216;27;20172;-59
2022/05/21 01:14:17;;;;;;;10.48;6.13;;;;;;;13.09;100.00;98383.41;5151273;27;20055;-60
2022/05/21 01:16:44;;;;;;;6.82;6.13;;;;;;;13.06;100.00;98382.28;5151095;27;20047;-60
2022/05/21 01:19:11;;;;;;;8.50;6.72;;;;;;;12.93;100.00;98370.13;5151217;27;20063;-60
2022/05/21 01:21:38;;;;;;;6.45;5.60;;;;;;;13.06;100.00;98352.00;5151347;27;20054;-59
2022/05/21 01:24:06;;;;;;;7.53;5.75;;;;;;;12.93;100.00;98337.13;5151280;27;20057;-60
2022/05/21 01:26:34;;;;;;;7.88;6.28;;;;;;;13.00;100.00;98336.31;5151171;27;20046;-60
2022/05/21 01:29:02;;;;;;;10.55;6.13;;;;;;;12.86;100.00;98337.94;5151085;27;20059;-60
2022/05/21 01:31:28;;;;;;;8.50;6.57;;;;;;;12.79;100.00;98323.41;5151271;27;20051;-60
2022/05/21 01:33:54;;;;;;;11.77;6.63;;;;;;;12.82;100.00;98317.91;5151026;27;20055;-60
2022/05/21 01:36:21;;;;;;;8.18;6.18;;;;;;;12.83;100.00;98318.69;5151067;27;20055;-59
2022/05/21 01:38:48;;;;;;;10.65;6.22;;;;;;;12.87;100.00;98322.22;5150847;27;20099;-59
2022/05/21 01:41:15;;;;;;;11.85;6.80;;;;;;;12.84;100.00;98339.53;5153312;27;20061;-59
2022/05/21 01:46:28;;;;;;;9.30;6.78;;;;;;;12.84;100.00;98331.28;5119460;27;20042;-60
2022/05/21 01:48:54;;;;;;;9.15;6.63;;;;;;;12.84;100.00;98325.78;5154575;27;20149;-59
2022/05/21 01:51:21;;;;;;;10.25;7.22;;;;;;;12.79;100.00;98324.19;5154396;27;20062;-59
2022/05/21 01:53:47;;;;;;;10.40;6.80;;;;;;;12.86;100.00;98326.94;5154685;27;20051;-60
2022/05/21 01:56:15;;;;;;;11.50;8.75;;;;;;;12.76;100.00;98321.47;5154298;27;20054;-60
2022/05/21 01:58:43;;;;;;;7.80;6.40;;;;;;;12.75;100.00;98314.41;5154548;27;20054;-60
2022/05/21 02:01:10;;;;;;;16.83;7.47;;;;;;;12.66;100.00;98309.34;5154347;27;20486;-60
2022/05/21 02:03:36;;;;;;;9.43;8.43;;;;;;;12.63;100.00;98310.16;5154440;27;20103;-60
2022/05/21 02:06:03;;;;;;;10.63;7.57;;;;;;;12.67;100.00;98308.94;5154004;27;20059;-60
2022/05/21 02:08:29;;;;;;;9.38;6.85;;;;;;;12.66;100.00;98307.38;5154130;27;20107;-60
2022/05/21 02:10:55;;;;;;;11.75;8.80;;;;;;;12.66;100.00;98307.38;5154309;27;20046;-60
2022/05/21 02:13:24;;;;;;;14.57;10.23;;;;;;;12.47;100.00;98296.84;5154302;27;20056;-60
2022/05/21 02:15:51;;;;;;;8.13;6.88;;;;;;;12.61;100.00;98296.78;5154341;27;20413;-60
2022/05/21 02:18:18;;;;;;;7.97;7.10;;;;;;;12.78;100.00;98305.38;5154201;27;20086;-60
2022/05/21 02:20:46;;;;;;;11.07;6.70;;;;;;;12.78;100.00;98305.38;5154196;27;20058;-60
2022/05/21 02:23:12;;;;;;;11.27;7.90;;;;;;;12.80;100.00;98309.28;5153891;27;20119;-60
2022/05/21 02:25:38;;;;;;;10.52;7.57;;;;;;;12.86;100.00;98321.44;5153919;27;20051;-60
2022/05/21 02:28:05;;;;;;;12.77;7.15;;;;;;;12.65;100.00;98335.28;5153763;27;20054;-59
2022/05/21 02:30:32;;;;;;;11.02;8.05;;;;;;;12.86;100.00;98331.63;5153788;27;20080;-59
2022/05/21 02:32:58;;;;;;;16.17;7.25;;;;;;;12.80;100.00;98316.75;5153703;27;20059;-60
2022/05/21 02:35:24;;;;;;;9.73;6.85;;;;;;;12.79;100.00;98307.69;5153794;27;20051;-60
2022/05/21 02:40:41;;;;;;;10.10;6.80;;;;;;;13.68;100.00;98314.63;5095050;27;20087;-59
2022/05/21 02:43:07;;;;;;;8.20;6.18;;;;;;;13.99;100.00;98347.81;5153630;27;20478;-59
2022/05/21 02:45:34;;;;;;;7.15;5.95;;;;;;;14.23;100.00;98396.44;5153626;27;20058;-60
2022/05/21 02:48:00;;;;;;;9.80;6.20;;;;;;;14.59;100.00;98456.78;5153849;27;20077;-61
2022/05/21 02:50:30;;;;;;;9.55;5.78;;;;;;;14.97;100.00;98532.09;5153521;27;20107;-60
2022/05/21 02:52:57;;;;;;;9.35;6.53;;;;;;;15.09;100.00;98582.44;5153656;27;20062;-60
2022/05/21 02:55:23;;;;;;;10.02;6.22;;;;;;;15.50;100.00;98627.41;5153445;27;20459;-60
2022/05/21 02:57:49;;;;;;;10.40;5.63;;;;;;;15.57;100.00;98647.88;5153557;27;20055;-60
2022/05/21 03:00:19;;;;;;;6.13;5.20;;;;;;;15.66;100.00;98665.56;5153386;27;20054;-60
2022/05/21 03:02:46;;;;;;;7.32;6.63;;;;;;;16.02;100.00;98667.13;5153295;27;20062;-60
2022/05/21 03:05:13;;;;;;;9.60;5.63;;;;;;;16.27;100.00;98637.19;5153354;27;20057;-60
2022/05/21 03:07:40;;;;;;;11.50;5.22;;;;;;;16.13;100.00;98626.31;5153400;27;20062;-60
2022/05/21 03:10:23;;;;;;;7.22;5.68;;;;;;;16.28;100.00;98605.53;5153429;27;20082;-60
2022/05/21 03:12:54;;;;;;;11.18;5.85;;;;;;;16.03;100.00;98575.50;5153551;27;20406;-60
2022/05/21 03:15:22;;;;;;;8.30;6.80;;;;;;;16.19;100.00;98581.19;5153397;27;20058;-60
2022/05/21 03:17:49;;;;;;;7.15;6.20;;;;;;;16.37;100.00;98563.53;5152888;27;20442;-60
2022/05/21 03:20:17;;;;;;;9.38;5.60;;;;;;;16.60;100.00;98541.44;5153261;27;20062;-60
2022/05/21 03:22:43;;;;;;;6.78;5.75;;;;;;;17.06;100.00;98478.16;5152898;27;20059;-60
2022/05/21 03:25:11;;;;;;;7.07;5.22;;;;;;;16.74;100.00;98426.16;5152819;27;20046;-60
2022/05/21 03:27:38;;;;;;;7.50;6.75;;;;;;;16.73;100.00;98424.56;5152818;27;20054;-60
2022/05/21 03:30:07;;;;;;;7.88;6.43;;;;;;;16.52;100.00;98434.06;5152784;27;20066;-60
2022/05/21 03:32:33;;;;;;;8.73;5.85;;;;;;;16.29;100.00;98454.19;5152430;27;20058;-60
2022/05/21 03:35:00;;;;;;;7.75;6.40;;;;;;;16.73;100.00;98457.78;5152845;27;20058;-60
2022/05/21 03:37:26;;;;;;;8.23;5.63;;;;;;;17.15;100.00;98373.13;5153078;27;20054;-60
2022/05/21 03:39:53;;;;;;;8.38;6.72;;;;;;;17.64;100.00;98274.25;5152630;27;20509;-60
2022/05/21 03:42:19;;;;;;;9.32;7.43;;;;;;;17.40;100.00;98212.69;5153003;27;20054;-60
2022/05/21 03:44:46;;;;;;;8.07;6.45;;;;;;;17.38;100.00;98245.59;5152513;27;20054;-60
2022/05/21 03:47:12;;;;;;;11.60;5.80;;;;;;;17.15;100.00;98267.91;5152894;27;20051;-60
2022/05/21 03:49:38;;;;;;;8.90;7.78;;;;;;;16.85;100.00;98314.03;5152311;27;20058;-60
2022/05/21 03:52:07;;;;;;;8.38;7.05;;;;;;;16.53;100.00;98378.31;5152607;27;20060;-60
2022/05/21 03:54:33;;;;;;;11.93;6.13;;;;;;;16.23;100.00;98451.94;5152449;27;20083;-60
2022/05/21 03:56:59;;;;;;;10.85;7.30;;;;;;;16.05;100.00;98511.47;5152286;27;20062;-60
2022/05/21 03:59:26;;;;;;;7.25;5.80;;;;;;;15.86;100.00;98546.88;5152515;27;20122;-60
2022/05/21 04:01:52;;;;;;;10.13;6.47;;;;;;;15.61;100.00;98568.50;5152211;27;20051;-60
2022/05/21 04:04:18;;;;;;;11.52;6.55;;;;;;;15.45;100.00;98602.19;5152028;27;20105;-60
2022/05/21 04:06:44;;;;;;;8.70;7.80;;;;;;;15.43;100.00;98618.41;5152213;27;20050;-60
2022/05/21 04:09:11;;;;;;;9.93;7.70;;;;;;;15.10;100.00;98629.00;5152515;27;20497;-60
2022/05/21 04:11:37;;;;;;;11.43;7.15;;;;;;;15.18;100.00;98641.53;5152036;27;20055;-60
2022/05/21 04:14:04;;;;;;;13.18;7.63;;;;;;;15.05;100.00;98644.00;5152129;27;20055;-60
2022/05/21 04:16:30;;;;;;;9.43;7.07;;;;;;;14.70;100.00;98647.84;5151989;27;20051;-61
2022/05/21 04:18:56;;;;;;;9.18;7.70;;;;;;;14.73;100.00;98657.28;5152237;27;20535;-60
2022/05/21 04:21:23;;;;;;;10.50;8.07;;;;;;;14.55;100.00;98652.66;5152017;27;20050;-61
2022/05/21 04:23:49;;;;;;;9.88;7.40;;;;;;;14.56;100.00;98656.19;5152069;27;20093;-60
2022/05/21 04:26:16;;;;;;;11.18;10.05;;;;;;;14.46;100.00;98654.25;5152142;27;20047;-60
2022/05/21 04:28:42;;;;;;;11.68;7.78;;;;;;;14.52;100.00;98655.44;5151882;27;20051;-60
2022/05/21 04:31:08;;;;;;;12.98;11.68;;;;;;;14.45;100.00;98636.94;5133528;27;20059;-60
2022/05/21 04:33:35;;;;;;;12.45;7.55;;;;;;;14.44;100.00;98638.13;5151774;27;20050;-60
2022/05/21 04:36:19;;;;;;;13.02;8.48;;;;;;;14.64;100.00;98629.34;5152152;27;20050;-60
2022/05/21 04:38:45;;;;;;;12.23;8.80;;;;;;;14.69;100.00;98632.44;5151868;27;20054;-60
2022/05/21 04:41:11;;;;;;;14.77;11.15;;;;;;;14.90;100.00;98625.22;5152095;27;20057;-60
2022/05/21 04:43:38;;;;;;;9.07;7.00;;;;;;;14.96;100.00;98624.38;5151620;27;20054;-60
2022/05/21 04:46:05;;;;;;;8.88;7.32;;;;;;;15.15;100.00;98630.50;5151462;27;20111;-57
2022/05/21 04:48:32;;;;;;;11.63;7.53;;;;;;;15.04;100.00;98617.59;5151931;27;20058;-58
2022/05/21 04:50:59;;;;;;;12.35;7.43;;;;;;;15.16;100.00;98621.03;5151410;27;20055;-58
2022/05/21 04:53:25;;;;;;;12.98;8.73;;;;;;;14.71;100.00;98615.50;5151800;27;20046;-58
2022/05/21 04:55:51;;;;;;;9.57;7.85;;;;;;;14.88;100.00;98613.78;5151552;27;20054;-58
2022/05/21 04:58:18;;;;;;;11.45;8.00;;;;;;;15.03;100.00;98606.97;5151448;27;20095;-57
2022/05/21 05:00:44;;;;;;;9.18;7.72;;;;;;;15.10;100.00;98604.16;5151261;27;20438;-58
2022/05/21 05:03:11;;;;;;;12.52;8.05;;;;;;;15.23;100.00;98596.13;5151691;27;20047;-60
2022/05/21 05:05:38;;;;;;;11.80;8.43;;;;;;;15.40;100.00;98597.16;5151185;27;20054;-59
2022/05/21 05:08:05;;;;;;;11.68;7.97;;;;;;;15.39;100.00;98598.31;5151618;27;20051;-59
2022/05/21 05:10:32;;;;;;;11.35;7.57;;;;;;;15.15;100.00;98589.09;5151101;27;20051;-59
2022/05/21 05:12:58;;;;;;;11.63;10.43;;;;;;;14.97;100.00;98592.81;5151469;27;20618;-59
2022/05/21 05:15:24;;;;;;;12.75;7.70;;;;;;;15.35;100.00;98597.56;5152190;27;20057;-59
2022/05/21 05:17:58;;;;;;;10.15;7.95;;;;;;;15.25;100.00;98585.44;5154905;27;20551;-59
2022/05/21 05:20:24;;;;;;;12.38;9.07;;;;;;;15.29;100.00;98597.22;5155448;27;20061;-59
2022/05/21 05:22:51;;;;;;;13.93;8.15;;;;;;;15.07;100.00;98591.16;5154709;27;20046;-59
2022/05/21 05:25:17;;;;;;;11.65;8.63;;;;;;;15.19;100.00;98587.09;5154847;27;20051;-59
2022/05/21 05:27:45;;;;;;;15.93;8.63;;;;;;;15.30;100.00;98585.00;5154661;27;20066;-59
2022/05/21 05:30:12;;;;;;;11.18;10.13;;;;;;;15.23;100.00;98576.81;5155076;27;20055;-59
2022/05/21 05:32:38;;;;;;;11.32;10.15;;;;;;;15.30;100.00;98576.72;5154555;27;20054;-58
2022/05/21 05:35:06;;;;;;;13.07;8.27;;;;;;;15.42;100.00;98572.63;5154920;27;20058;-59
2022/05/21 05:37:33;;;;;;;11.80;8.57;;;;;;;15.44;100.00;98560.00;5154679;27;20057;-59
2022/05/21 05:39:59;;;;;;;10.52;7.95;;;;;;;15.49;100.00;98559.56;5154526;27;20066;-59
2022/05/21 05:42:26;;;;;;;13.77;8.80;;;;;;;15.61;100.00;98546.38;5154755;27;20066;-59
2022/05/21 05:44:52;;;;;;;17.15;7.78;;;;;;;15.32;100.00;98548.69;5154518;27;20063;-59
2022/05/21 05:47:18;;;;;;;10.75;7.68;;;;;;;15.56;100.00;98550.41;5154321;27;20055;-59
2022/05/21 05:49:44;;;;;;;10.15;7.72;;;;;;;15.62;100.00;98539.66;5154368;27;20050;-59
2022/05/21 05:52:11;;;;;;;11.30;7.90;;;;;;;15.61;100.00;98519.53;5154692;27;20046;-59
2022/05/21 05:54:38;;;;;;;12.18;8.25;;;;;;;15.41;100.00;98510.31;5154379;27;20069;-59
2022/05/21 05:57:09;;;;;;;10.05;7.68;;;;;;;15.43;100.00;98513.47;5154617;27;20103;-59
2022/05/21 05:59:50;;;;;;;14.65;7.57;;;;;;;15.52;100.00;98510.97;5154209;27;20059;-59
2022/05/21 06:05:02;;;;;;;10.60;7.63;;;;;;;15.53;100.00;98516.09;5154451;27;20422;-59
2022/05/21 06:07:29;;;;;;;11.73;8.45;;;;;;;15.48;100.00;98524.03;5154057;27;20054;-59
2022/05/21 06:10:02;;;;;;;11.05;7.85;;;;;;;15.69;100.00;98501.72;5154267;27;20081;-59
2022/05/21 06:12:28;;;;;;;10.45;7.82;;;;;;;15.42;100.00;98498.84;5153965;27;20114;-59
2022/05/21 06:14:55;;;;;;;11.73;7.78;;;;;;;15.78;100.00;98479.06;5154263;27;20047;-59
2022/05/21 06:17:21;;;;;;;10.55;9.60;;;;;;;15.89;100.00;98468.63;5153816;27;20107;-59
2022/05/21 06:19:47;;;;;;;10.40;7.20;;;;;;;16.19;100.00;98464.22;5154017;27;20046;-59
2022/05/21 06:22:13;;;;;;;8.48;7.53;;;;;;;16.38;100.00;98441.41;5153800;27;20066;-59
2022/05/21 06:24:40;;;;;;;14.65;7.95;;;;;;;16.57;100.00;98416.97;5153647;27;20047;-59
2022/05/21 06:27:07;;;;;;;11.02;7.70;;;;;;;16.54;100.00;98352.19;5153076;27;20138;-60
2022/05/21 06:29:35;;;;;;;10.98;8.10;;;;;;;16.67;100.00;98302.53;5153591;27;20563;-59
2022/05/21 06:32:02;;;;;;;9.43;7.25;;;;;;;17.00;100.00;98294.38;5153782;27;20058;-59
2022/05/21 06:34:28;;;;;;;12.95;8.82;;;;;;;17.16;100.00;98239.00;5153468;27;20068;-59
2022/05/21 06:36:54;;;;;;;10.70;6.70;;;;;;;17.56;100.00;98172.31;5153719;27;20078;-59
2022/05/21 06:39:20;;;;;;;8.23;6.93;;;;;;;17.66;100.00;98007.75;5153437;27;20047;-59
2022/05/21 06:41:47;;;;;;;9.35;8.25;;;;;;;17.78;100.00;97948.78;5153798;27;20055;-59
2022/05/21 06:44:13;;;;;;;8.95;8.15;;;;;;;17.80;100.00;97924.19;5153597;27;20073;-59
2022/05/21 06:46:40;;;;;;;10.02;8.75;;;;;;;18.15;100.00;97787.59;5153474;27;20047;-59
2022/05/21 06:49:06;;;;;;;9.02;8.13;;;;;;;18.18;100.00;97737.53;5153463;27;20054;-59
2022/05/21 06:51:32;;;;;;;9.70;8.70;;;;;;;18.57;100.00;97641.00;5153291;27;20515;-60
2022/05/21 06:53:58;;;;;;;8.07;7.28;;;;;;;18.83;100.00;97466.69;5153391;27;20452;-60
2022/05/21 06:56:24;;;;;;;11.05;7.75;;;;;;;18.85;100.00;97399.59;5153668;27;20109;-60
2022/05/21 06:58:51;;;;;;;8.25;7.43;;;;;;;19.15;100.00;97351.41;5153260;27;20054;-60
2022/05/21 07:01:18;;;;;;;7.50;6.90;;;;;;;20.33;100.00;97258.78;5153441;27;20055;-60
2022/05/21 07:03:44;;;;;;;7.28;6.57;;;;;;;21.37;100.00;97131.38;5153309;27;20047;-60
2022/05/21 07:08:54;;;;;;;6.50;5.90;;;;;;;22.81;100.00;97018.06;5153825;27;20049;-61
2022/05/21 07:11:20;;;;;;;9.07;6.60;;;;;;;22.76;100.00;97019.56;5152971;27;20055;-60
2022/05/21 07:13:47;;;;;;;6.85;6.22;;;;;;;22.96;100.00;97007.50;5153140;27;20421;-60
2022/05/21 07:16:14;;;;;;;7.55;6.55;;;;;;;22.21;100.00;97017.91;5153122;27;20073;-60
2022/05/21 07:18:40;;;;;;;8.63;6.28;;;;;;;22.46;100.00;97012.75;5152999;27;20070;-61
2022/05/21 07:21:10;;;;;;;9.98;6.95;;;;;;;22.04;100.00;97003.03;5152922;27;20425;-60
2022/05/21 07:23:37;;;;;;;7.03;6.43;;;;;;;22.68;100.00;96996.16;5153312;27;20047;-60
2022/05/21 07:26:03;;;;;;;7.90;6.70;;;;;;;22.59;100.00;96984.41;5153504;27;20504;-60
2022/05/21 07:28:29;;;;;;;6.13;5.55;;;;;;;22.46;100.00;96985.63;5153001;27;20054;-60
2022/05/21 07:30:56;;;;;;;6.20;5.60;;;;;;;22.49;100.00;97006.97;5152967;27;20062;-60
2022/05/21 07:33:22;;;;;;;7.22;6.22;;;;;;;22.22;100.00;97002.69;5152709;27;20051;-60
2022/05/21 07:35:50;;;;;;;7.88;6.53;;;;;;;21.29;100.00;96980.50;5152927;27;20054;-60
2022/05/21 07:38:16;;;;;;;7.30;6.38;;;;;;;21.36;100.00;96977.31;5151503;27;20058;-60
2022/05/21 07:40:45;;;;;;;9.70;5.80;;;;;;;21.61;100.00;96975.78;5152821;27;20497;-61
2022/05/21 07:43:12;;;;;;;7.47;6.45;;;;;;;22.07;100.00;96966.53;5152635;27;20054;-60
2022/05/21 07:45:39;;;;;;;6.80;6.20;;;;;;;22.15;100.00;96966.09;5152692;27;20061;-61
2022/05/21 07:48:06;;;;;;;7.40;5.88;;;;;;;22.25;100.00;96954.25;5152449;27;20074;-60
2022/05/21 07:50:33;;;;;;;6.47;5.70;;;;;;;22.28;100.00;96960.88;5152415;27;20055;-60
2022/05/21 07:52:59;;;;;;;7.47;5.47;;;;;;;22.04;100.00;96977.94;5152636;27;20057;-60
2022/05/21 07:55:25;;;;;;;6.63;6.00;;;;;;;22.30;100.00;96978.66;5152596;27;20510;-60
2022/05/21 07:57:52;;;;;;;6.20;5.65;;;;;;;21.74;100.00;96972.59;5152561;27;20060;-60
2022/05/21 08:00:19;;;;;;;7.07;5.82;;;;;;;21.99;100.00;96967.47;5152419;27;20478;-61
2022/05/21 08:02:45;;;;;;;6.35;5.53;;;;;;;21.87;100.00;96958.28;5152447;27;20395;-60
2022/05/21 08:05:12;;;;;;;7.95;5.28;;;;;;;21.83;100.00;96943.78;5152266;27;20058;-60
2022/05/21 08:07:39;;;;;;;6.20;5.28;;;;;;;21.55;100.00;96944.28;5152416;27;20059;-61
2022/05/21 08:10:07;;;;;;;6.57;5.45;;;;;;;20.76;100.00;96931.53;5152115;27;20501;-60
2022/05/21 08:12:33;;;;;;;6.35;5.85;;;;;;;20.92;100.00;96932.97;5152227;27;20050;-60
2022/05/21 08:14:59;;;;;;;6.68;5.72;;;;;;;20.81;100.00;96925.25;5152023;27;20051;-60
2022/05/21 08:17:25;;;;;;;6.25;5.65;;;;;;;21.26;100.00;96927.75;5152164;27;20390;-60
2022/05/21 08:19:52;;;;;;;7.10;6.50;;;;;;;21.45;100.00;96919.88;5152194;27;20437;-60
2022/05/21 08:27:47;;;;;;;6.40;5.80;;;;;;;22.55;100.00;96926.78;5151964;27;20049;-61
2022/05/21 08:30:15;;;;;;;7.68;6.25;;;;;;;22.82;100.00;96951.78;5151959;27;20054;-60
2022/05/21 08:32:41;;;;;;;6.57;5.55;;;;;;;22.50;100.00;96955.44;5151802;27;20088;-60
2022/05/21 08:35:08;;;;;;;6.57;5.88;;;;;;;22.14;100.00;96945.78;5151918;27;20054;-60
2022/05/21 08:37:35;;;;;;;6.53;5.63;;;;;;;21.23;100.00;96912.81;5151746;27;20058;-60
2022/05/21 08:40:01;;;;;;;7.35;5.63;;;;;;;21.09;100.00;96908.06;5151564;27;20055;-60
2022/05/21 08:42:33;;;;;;;5.32;4.82;;;;;;;20.62;100.00;96887.81;5151707;27;20047;-60
2022/05/21 08:45:11;;;;;;;5.25;4.75;;;;;;;20.29;100.00;96888.88;5151783;27;20133;-60
2022/05/21 08:47:38;;;;;;;5.88;5.28;;;;;;;20.30;100.00;96881.31;5152303;27;20478;-60
2022/05/21 08:50:09;;;;;;;6.38;5.38;;;;;;;20.34;100.00;96881.88;5151646;27;20407;-60
2022/05/21 08:52:43;;;;;;;4.93;4.45;;;;;;;19.86;100.00;96882.19;5151547;27;20054;-60
2022/05/21 08:55:12;;;;;;;6.78;4.90;;;;;;;20.42;100.00;96882.97;5151654;27;20566;-60
2022/05/21 08:57:44;;;;;;;7.05;5.30;;;;;;;20.53;100.00;96882.41;5151660;27;20057;-60
2022/05/21 09:00:14;;;;;;;6.38;4.55;;;;;;;20.50;100.00;96880.56;5151353;27;20065;-60
2022/05/21 09:02:40;;;;;;;6.05;5.05;;;;;;;20.09;100.00;96886.84;5151689;27;20111;-60
2022/05/21 09:05:10;;;;;;;6.45;5.85;;;;;;;19.97;100.00;96887.94;5151813;27;20523;-60
2022/05/21 09:07:48;;;;;;;6.72;5.20;;;;;;;20.22;100.00;96881.69;5151466;27;20057;-60
2022/05/21 09:10:20;;;;;;;6.40;5.78;;;;;;;;;;5151326;27;20054;-60
2022/05/21 09:12:58;;;;;;;6.40;5.20;;;;;;;20.55;100.00;96871.53;5151304;27;20055;-60
2022/05/21 09:18:20;;;;;;;12.43;6.10;;;;;;;20.73;100.00;96860.09;5149604;27;20438;-60
2022/05/21 09:20:53;;;;;;;6.38;5.60;;;;;;;20.82;100.00;96861.97;5151287;27;20059;-60
2022/05/21 09:23:20;;;;;;;7.43;5.68;;;;;;;20.84;100.00;96857.44;5151533;27;20131;-60
2022/05/21 09:25:46;;;;;;;6.38;5.75;;;;;;;20.64;100.00;96847.09;5151378;27;20436;-60
2022/05/21 09:28:20;;;;;;;9.98;5.28;;;;;;;21.04;100.00;96842.69;5151238;27;20100;-60
2022/05/21 09:30:57;;;;;;;5.65;4.90;;;;;;;21.28;100.00;96844.44;5151117;27;20046;-60
2022/05/21 09:33:26;;;;;;;8.02;6.18;;;;;;;21.20;100.00;96835.00;5151173;27;20053;-60
2022/05/21 09:35:54;;;;;;;8.95;5.70;;;;;;;21.18;100.00;96827.13;5151057;27;20417;-60
2022/05/21 09:38:24;;;;;;;6.40;5.80;;;;;;;20.69;100.00;96828.91;5150919;27;20524;-60
2022/05/21 09:40:50;;;;;;;8.35;5.55;;;;;;;20.26;100.00;96828.66;5151140;27;20065;-60
2022/05/21 09:46:20;;;;;;;7.40;5.80;;;;;;;19.79;100.00;96844.44;5151371;27;20602;-60
2022/05/21 09:48:46;;;;;;;7.20;6.10;;;;;;;19.82;100.00;96842.69;5150727;27;20434;-60
2022/05/21 09:51:24;;;;;;;6.05;5.00;;;;;;;19.19;100.00;96840.97;5150914;27;20061;-60
2022/05/21 09:53:51;;;;;;;6.35;5.70;;;;;;;19.27;100.00;96871.88;5150770;27;20112;-60
2022/05/21 09:56:19;;;;;;;6.57;6.00;;;;;;;19.28;100.00;96860.28;5150881;27;20050;-60
2022/05/21 09:58:48;;;;;;;7.15;6.43;;;;;;;19.20;100.00;96872.28;5150621;27;20501;-60
2022/05/21 10:01:32;;;;;;;6.28;5.68;;;;;;;19.19;100.00;96884.59;5151316;27;20081;-60
2022/05/21 10:04:00;;;;;;;6.47;5.13;;;;;;;19.14;100.00;96913.81;5154200;27;20062;-60
2022/05/21 10:06:30;;;;;;;7.18;6.03;;;;;;;19.11;100.00;96945.31;5154112;27;20050;-60
2022/05/21 10:11:53;;;;;;;7.13;6.32;;;;;;;19.00;100.00;96897.91;5154143;27;20053;-60
2022/05/21 10:14:26;;;;;;;7.05;6.35;;;;;;;18.90;100.00;96890.91;5154436;27;20057;-60
2022/05/21 10:16:56;;;;;;;6.63;6.03;;;;;;;18.97;100.00;96884.97;5154407;27;20102;-60
2022/05/21 10:19:34;;;;;;;6.63;5.90;;;;;;;19.30;100.00;96922.94;5153845;27;20148;-60
2022/05/21 10:22:16;;;;;;;8.73;5.00;;;;;;;19.39;100.00;96937.53;5154013;27;20131;-60
2022/05/21 10:25:00;;;;;;;7.00;6.30;;;;;;;19.12;100.00;96894.06;5154006;27;20463;-60
2022/05/21 10:27:46;;;;;;;6.60;5.33;;;;;;;19.09;100.00;96914.47;5153989;27;20050;-60
2022/05/21 10:30:17;;;;;;;7.68;6.30;;;;;;;19.22;100.00;96875.31;5154168;27;20421;-60
2022/05/21 10:33:07;;;;;;;6.38;5.88;;;;;;;19.28;100.00;96854.72;5153710;27;20058;-60
2022/05/21 10:35:50;;;;;;;6.78;6.10;;;;;;;19.60;100.00;96882.03;5153857;27;20434;-60
2022/05/21 10:38:32;;;;;;;6.43;5.13;;;;;;;19.58;100.00;96859.50;5153642;27;20068;-60
2022/05/21 10:41:02;;;;;;;6.65;6.05;;;;;;;19.61;100.00;96839.84;5153566;27;20104;-60
2022/05/21 10:43:50;;;;;;;6.80;5.78;;;;;;;19.64;100.00;96844.47;5153965;27;20612;-60
2022/05/21 10:46:35;;;;;;;7.55;5.43;;;;;;;19.81;100.00;96844.72;5153809;27;20055;-60
2022/05/21 10:49:19;;;;;;;6.80;6.20;;;;;;;19.70;100.00;96836.22;5153764;27;20053;-60
2022/05/21 10:51:54;;;;;;;7.90;5.50;;;;;;;19.52;100.00;96874.06;5153412;27;20055;-60
2022/05/21 10:54:36;;;;;;;7.00;6.38;;;;;;;19.38;100.00;96846.28;5153829;27;20115;-60
2022/05/21 10:57:20;;;;;;;6.40;5.80;;;;;;;19.34;100.00;96871.50;5153497;27;20051;-60
2022/05/21 10:59:58;;;;;;;6.43;5.63;;;;;;;19.51;100.00;96871.78;5153352;27;20054;-60
2022/05/21 11:02:56;;;;;;;6.22;5.57;;;;;;;19.64;100.00;96858.38;5153438;27;20051;-60
2022/05/21 11:05:45;;;;;;;6.80;6.10;;;;;;;19.44;100.00;96872.94;5153111;27;20065;-60
2022/05/21 11:08:16;;;;;;;7.95;6.15;;;;;;;19.39;100.00;96879.16;5153451;27;20058;-60
2022/05/21 11:10:51;;;;;;;6.60;6.00;;;;;;;19.24;100.00;96851.38;5153057;27;20080;-61
2022/05/21 11:13:21;;;;;;;6.60;6.07;;;;;;;19.15;100.00;96859.03;5151986;27;20429;-60
2022/05/21 11:15:50;;;;;;;6.15;5.50;;;;;;;19.12;100.00;96880.19;5153183;27;20060;-60
2022/05/21 11:18:22;;;;;;;6.53;5.53;;;;;;;18.99;100.00;96922.13;5153174;27;20057;-61
2022/05/21 11:20:57;;;;;;;6.47;5.78;;;;;;;18.72;100.00;96948.06;5153086;27;20069;-61
2022/05/21 11:23:31;;;;;;;8.43;6.93;;;;;;;18.74;100.00;96881.78;5153286;27;20046;-60
2022/05/21 11:26:03;;;;;;;7.07;6.45;;;;;;;18.89;100.00;96845.69;5152936;27;20058;-60
2022/05/21 11:28:37;;;;;;;5.13;4.63;;;;;;;18.95;100.00;96854.91;5152832;27;20059;-60
2022/05/21 11:31:07;;;;;;;7.00;6.38;;;;;;;18.93;100.00;96895.50;5152889;27;20055;-61
2022/05/21 11:39:14;;;;;;;6.97;6.38;;;;;;;18.74;100.00;96892.88;5153053;27;20054;-60
2022/05/21 11:42:09;;;;;;;6.85;6.15;;;;;;;18.76;100.00;96934.81;5152845;27;20055;-60
2022/05/21 11:44:56;;;;;;;6.25;4.88;;;;;;;18.89;100.00;96919.88;5152799;27;20059;-60
2022/05/21 11:47:49;;;;;;;7.00;6.20;;;;;;;18.43;100.00;96959.06;5152815;27;20422;-58
2022/05/21 11:50:25;;;;;;;7.45;6.65;;;;;;;18.45;100.00;96971.19;5152818;27;20055;-58
2022/05/21 11:52:57;;;;;;;4.75;4.13;;;;;;;18.47;100.00;97020.69;5152433;27;20057;-58
2022/05/21 11:55:26;;;;;;;6.63;6.00;;;;;;;18.48;100.00;97077.69;5152505;27;20054;-59
2022/05/21 11:57:54;;;;;;;6.97;6.28;;;;;;;18.75;100.00;96988.00;5152393;27;20514;-59
2022/05/21 12:00:44;;;;;;;7.53;6.82;;;;;;;18.59;100.00;96994.69;5152248;27;20058;-59
2022/05/21 12:03:16;;;;;;;7.28;6.57;;;;;;;18.76;100.00;97031.97;5152311;27;20050;-59